Time;durP1;ratioP1;P1;durP2;ratioP2;P2;SDS_P1;SDS_P2;PMS_P1;PMS_P2;Temp;Humidity;BMP_temperature;BMP_pressure;BME280_temperature;BME280_humidity;BME280_pressure;Samples;Min_cycle;Max_cycle;Signal;HPM_P1;HPM_P2
2022/12/08 00:01:27;;;;;;;;;;;;;;;26.58;44.78;96767.73;608160;233;62994;-67
2022/12/08 00:03:55;;;;;;;;;;;;;;;26.58;43.51;96763.14;608123;233;65900;-68
2022/12/08 00:09:22;;;;;;;;;;;;;;;26.56;43.80;96776.13;608057;233;65110;-67
2022/12/08 00:11:58;;;;;;;;;;;;;;;26.54;42.38;96778.33;608093;233;68527;-67
2022/12/08 00:14:26;;;;;;;;;;;;;;;26.53;43.65;96782.93;608067;233;66156;-68
2022/12/08 00:16:54;;;;;;;;;;;;;;;26.53;42.73;96787.53;608074;233;65089;-68
2022/12/08 00:19:22;;;;;;;;;;;;;;;26.51;43.40;96789.73;608144;233;68335;-68
2022/12/08 00:21:50;;;;;;;;;;;;;;;26.50;43.73;96798.91;608078;233;68164;-68
2022/12/08 00:24:18;;;;;;;;;;;;;;;26.49;42.36;96808.08;608074;233;64913;-68
2022/12/08 00:26:46;;;;;;;;;;;;;;;26.49;45.97;96813.47;608682;232;68689;-68
2022/12/08 00:29:14;;;;;;;;;;;;;;;26.49;42.96;96816.98;610026;232;68586;-68
2022/12/08 00:31:42;;;;;;;;;;;;;;;26.48;44.01;96817.28;610073;232;62927;-67
2022/12/08 00:34:09;;;;;;;;;;;;;;;26.46;43.25;96814.09;610021;232;66474;-67
2022/12/08 00:36:36;;;;;;;;;;;;;;;26.47;43.31;96818.39;610042;232;66420;-67
2022/12/08 00:39:04;;;;;;;;;;;;;;;26.44;44.91;96814.42;610062;232;64927;-67
2022/12/08 00:44:20;;;;;;;;;;;;;;;26.44;43.28;96811.73;610059;232;68366;-67
2022/12/08 00:46:48;;;;;;;;;;;;;;;26.42;43.53;96813.93;610086;232;65070;-68
2022/12/08 00:49:16;;;;;;;;;;;;;;;26.42;43.62;96818.53;610055;232;66192;-68
2022/12/08 00:51:43;;;;;;;;;;;;;;;26.40;43.42;96826.91;610041;232;68224;-67
2022/12/08 00:54:11;;;;;;;;;;;;;;;26.40;43.86;96828.81;610043;232;65041;-68
2022/12/08 00:56:38;;;;;;;;;;;;;;;26.39;43.84;96827.23;610039;232;66223;-68
2022/12/08 00:59:06;;;;;;;;;;;;;;;26.38;43.84;96831.81;610046;232;66475;-68
2022/12/08 01:01:35;;;;;;;;;;;;;;;26.38;44.22;96836.41;610040;232;65029;-68
2022/12/08 01:04:04;;;;;;;;;;;;;;;26.37;43.31;96840.22;610036;232;68456;-67
2022/12/08 01:06:32;;;;;;;;;;;;;;;26.36;44.27;96839.42;609765;232;68344;-67
2022/12/08 01:09:00;;;;;;;;;;;;;;;26.34;44.75;96828.16;610033;232;65161;-67
2022/12/08 01:11:28;;;;;;;;;;;;;;;26.33;43.66;96824.67;610029;232;66185;-67
2022/12/08 01:13:55;;;;;;;;;;;;;;;26.32;44.92;96824.97;610074;232;66584;-67
2022/12/08 01:16:25;;;;;;;;;;;;;;;26.31;45.01;96821.49;610052;232;64920;-68
2022/12/08 01:18:53;;;;;;;;;;;;;;;26.33;45.44;96826.58;610016;232;66499;-67
2022/12/08 01:21:20;;;;;;;;;;;;;;;26.30;45.76;96821.79;610007;232;69186;-68
2022/12/08 01:23:48;;;;;;;;;;;;;;;26.28;44.87;96822.12;610002;232;65074;-67
2022/12/08 01:26:16;;;;;;;;;;;;;;;26.28;43.33;96824.02;609829;232;69042;-68
2022/12/08 01:28:44;;;;;;;;;;;;;;;26.28;44.72;96824.81;608012;233;68782;-67
2022/12/08 01:31:13;;;;;;;;;;;;;;;26.26;45.85;96823.53;608024;233;65057;-67
2022/12/08 01:33:41;;;;;;;;;;;;;;;26.26;45.26;96826.22;608004;233;66731;-67
2022/12/08 01:36:09;;;;;;;;;;;;;;;26.24;45.50;96825.73;608007;233;68885;-67
2022/12/08 01:38:36;;;;;;;;;;;;;;;26.23;44.68;96816.86;608075;233;65077;-67
2022/12/08 01:41:04;;;;;;;;;;;;;;;26.22;44.74;96822.55;608066;233;68661;-67
2022/12/08 01:43:49;;;;;;;;;;;;;;;26.21;43.47;96816.37;608037;233;68673;-68
2022/12/08 01:46:16;;;;;;;;;;;;;;;26.20;44.08;96816.69;608031;233;65057;-66
2022/12/08 01:48:44;;;;;;;;;;;;;;;26.19;45.35;96818.59;608002;233;68955;-66
2022/12/08 01:51:11;;;;;;;;;;;;;;;26.19;44.43;96818.59;608015;233;68753;-67
2022/12/08 01:53:39;;;;;;;;;;;;;;;26.17;45.40;96820.80;608071;233;65109;-66
2022/12/08 01:56:08;;;;;;;;;;;;;;;26.16;45.85;96821.88;608034;233;68633;-67
2022/12/08 01:58:37;;;;;;;;;;;;;;;26.14;46.36;96821.42;607967;233;70874;-67
2022/12/08 02:01:05;;;;;;;;;;;;;;;26.14;44.99;96821.42;608005;233;65033;-67
2022/12/08 02:03:34;;;;;;;;;;;;;;;26.13;46.07;96819.81;608012;233;68818;-67
2022/12/08 02:06:02;;;;;;;;;;;;;;;26.12;44.26;96816.33;607432;233;68569;-66
2022/12/08 02:08:30;;;;;;;;;;;;;;;26.11;44.08;96816.66;608034;233;65119;-67
2022/12/08 02:10:58;;;;;;;;;;;;;;;26.10;45.64;96813.14;608016;233;68684;-66
2022/12/08 02:13:25;;;;;;;;;;;;;;;26.10;46.26;96806.97;607970;233;68785;-67
2022/12/08 02:15:57;;;;;;;;;;;;;;;26.09;44.59;96805.39;608014;233;64898;-66
2022/12/08 02:18:30;;;;;;;;;;;;;;;26.08;46.07;96803.78;608075;232;66779;-67
2022/12/08 02:21:02;;;;;;;;;;;;;;;26.07;45.03;96799.52;602748;233;66465;-66
2022/12/08 02:23:30;;;;;;;;;;;;;;;26.06;45.04;96787.95;607722;233;64856;-67
2022/12/08 02:26:16;;;;;;;;;;;;;;;26.05;44.24;96782.86;607872;233;68934;-66
2022/12/08 02:29:02;;;;;;;;;;;;;;;26.05;44.64;96790.94;608007;233;68949;-67
2022/12/08 02:31:43;;;;;;;;;;;;;;;26.03;45.03;96785.09;608054;233;65429;-67
2022/12/08 02:34:12;;;;;;;;;;;;;;;26.01;45.72;96788.08;601997;233;68564;-67
2022/12/08 02:36:50;;;;;;;;;;;;;;;26.01;44.66;96779.21;607976;233;68688;-67
2022/12/08 02:39:29;;;;;;;;;;;;;;;26.00;44.67;96780.30;608043;233;63200;-67
2022/12/08 02:41:58;;;;;;;;;;;;;;;25.99;44.96;96773.33;608029;233;66686;-67
2022/12/08 02:44:26;;;;;;;;;;;;;;;25.99;46.60;96776.03;607825;233;66588;-67
2022/12/08 02:46:55;;;;;;;;;;;;;;;25.97;45.55;96775.53;607916;233;65007;-67
2022/12/08 02:49:24;;;;;;;;;;;;;;;25.96;45.89;96765.88;608003;233;69566;-67
2022/12/08 02:51:52;;;;;;;;;;;;;;;25.95;47.11;96778.55;607937;233;68581;-67
2022/12/08 02:54:19;;;;;;;;;;;;;;;25.94;45.70;96776.16;608024;233;65079;-67
2022/12/08 02:56:54;;;;;;;;;;;;;;;25.93;45.88;96766.50;608048;233;68874;-67
2022/12/08 02:59:32;;;;;;;;;;;;;;;25.92;47.72;96771.09;607999;233;66742;-67
2022/12/08 03:02:01;;;;;;;;;;;;;;;25.91;44.82;96772.18;608021;233;65128;-66
2022/12/08 03:04:36;;;;;;;;;;;;;;;25.90;45.85;96770.60;608025;233;68836;-66
2022/12/08 03:07:05;;;;;;;;;;;;;;;25.90;48.03;96773.30;608041;233;66607;-66
2022/12/08 03:09:52;;;;;;;;;;;;;;;25.87;46.10;96772.02;608016;233;62543;-66
2022/12/08 03:12:21;;;;;;;;;;;;;;;25.88;47.13;96775.49;607974;233;68945;-66
2022/12/08 03:14:50;;;;;;;;;;;;;;;25.85;45.98;96779.59;607859;233;68722;-66
2022/12/08 03:17:20;;;;;;;;;;;;;;;25.84;47.25;96780.70;608019;233;65052;-67
2022/12/08 03:19:49;;;;;;;;;;;;;;;25.83;45.29;96779.09;608025;233;66544;-67
2022/12/08 03:22:17;;;;;;;;;;;;;;;25.83;47.82;96792.56;608033;233;68390;-67
2022/12/08 03:24:46;;;;;;;;;;;;;;;25.81;46.20;96794.76;608002;233;62972;-67
2022/12/08 03:27:18;;;;;;;;;;;;;;;25.81;46.50;96794.76;608989;232;66714;-67
2022/12/08 03:29:50;;;;;;;;;;;;;;;25.81;47.41;96796.62;609750;232;69018;-67
2022/12/08 03:32:25;;;;;;;;;;;;;;;25.79;46.10;96799.64;609991;232;62666;-67
2022/12/08 03:34:54;;;;;;;;;;;;;;;25.78;46.05;96800.76;609596;232;68896;-67
2022/12/08 03:37:21;;;;;;;;;;;;;;;25.77;46.59;96804.53;610093;232;68531;-67
2022/12/08 03:39:49;;;;;;;;;;;;;;;25.77;46.01;96809.91;610046;232;64864;-67
2022/12/08 03:42:16;;;;;;;;;;;;;;;25.76;48.59;96819.11;610029;232;68557;-67
2022/12/08 03:44:44;;;;;;;;;;;;;;;25.76;48.31;96815.63;610053;232;66711;-67
2022/12/08 03:47:11;;;;;;;;;;;;;;;25.74;48.51;96821.30;610040;232;63255;-67
2022/12/08 03:49:39;;;;;;;;;;;;;;;25.73;48.51;96817.03;610092;232;66157;-67
2022/12/08 03:52:07;;;;;;;;;;;;;;;25.72;48.36;96818.11;610004;232;68683;-67
2022/12/08 03:54:34;;;;;;;;;;;;;;;25.71;46.49;96813.84;610007;232;64907;-67
2022/12/08 03:57:02;;;;;;;;;;;;;;;25.71;47.10;96813.05;610031;232;69036;-67
2022/12/08 03:59:29;;;;;;;;;;;;;;;25.68;47.76;96809.08;610030;232;68713;-67
2022/12/08 04:01:57;;;;;;;;;;;;;;;25.68;47.62;96812.55;610061;232;63108;-67
2022/12/08 04:04:24;;;;;;;;;;;;;;;25.68;47.60;96819.84;610072;232;66715;-67
2022/12/08 04:06:51;;;;;;;;;;;;;;;25.66;48.77;96825.52;610037;232;66638;-67
2022/12/08 04:09:19;;;;;;;;;;;;;;;25.66;48.04;96830.11;610072;232;62843;-67
2022/12/08 04:11:46;;;;;;;;;;;;;;;25.65;46.45;96832.01;610041;232;66353;-67
2022/12/08 04:14:14;;;;;;;;;;;;;;;25.65;46.91;96831.22;610040;232;68427;-67
2022/12/08 04:16:41;;;;;;;;;;;;;;;25.63;47.59;96828.82;610111;232;65057;-67
2022/12/08 04:19:09;;;;;;;;;;;;;;;25.62;47.01;96831.83;610013;232;68522;-67
2022/12/08 04:21:36;;;;;;;;;;;;;;;25.61;47.53;96836.39;610067;232;68469;-67
2022/12/08 04:24:04;;;;;;;;;;;;;;;25.62;48.12;96839.91;610022;232;65010;-67
2022/12/08 04:26:31;;;;;;;;;;;;;;;25.60;46.42;96842.89;609604;232;68363;-67
2022/12/08 04:28:59;;;;;;;;;;;;;;;25.60;47.67;96848.27;608087;233;68493;-67
2022/12/08 04:31:26;;;;;;;;;;;;;;;25.58;46.77;96844.30;608051;233;64932;-67
2022/12/08 04:33:54;;;;;;;;;;;;;;;25.58;47.02;96846.98;607923;233;66257;-67
2022/12/08 04:36:22;;;;;;;;;;;;;;;25.58;49.00;96849.67;608047;233;68425;-67
2022/12/08 04:38:53;;;;;;;;;;;;;;;25.56;48.80;96847.27;607869;233;62952;-67
2022/12/08 04:41:21;;;;;;;;;;;;;;;25.54;49.29;96843.33;607944;233;69131;-67
2022/12/08 04:43:49;;;;;;;;;;;;;;;25.53;47.86;96841.72;608011;233;69025;-67
2022/12/08 04:46:16;;;;;;;;;;;;;;;25.52;48.20;96840.92;608011;233;65065;-67
2022/12/08 04:48:44;;;;;;;;;;;;;;;25.51;47.14;96842.03;608047;233;68822;-67
2022/12/08 04:51:18;;;;;;;;;;;;;;;25.50;48.40;96832.36;608035;233;68661;-67
2022/12/08 04:53:46;;;;;;;;;;;;;;;25.49;48.92;96836.16;608033;233;62794;-67
2022/12/08 04:56:14;;;;;;;;;;;;;;;25.48;46.69;96834.55;608084;233;68772;-67
2022/12/08 04:58:42;;;;;;;;;;;;;;;25.49;49.54;96833.47;608020;233;67678;-67
2022/12/08 05:01:10;;;;;;;;;;;;;;;25.47;48.01;96825.69;608079;233;63834;-67
2022/12/08 05:03:37;;;;;;;;;;;;;;;25.45;49.19;96838.67;608040;233;66409;-67
2022/12/08 05:06:05;;;;;;;;;;;;;;;25.44;48.36;96833.58;608026;233;66613;-67
2022/12/08 05:08:33;;;;;;;;;;;;;;;25.43;49.58;96832.80;608051;233;65042;-68
2022/12/08 05:11:05;;;;;;;;;;;;;;;25.43;48.43;96832.80;608001;233;69042;-67
2022/12/08 05:13:33;;;;;;;;;;;;;;;25.41;50.60;96840.36;607809;233;68562;-67
2022/12/08 05:16:07;;;;;;;;;;;;;;;25.41;48.44;96844.95;608031;233;64998;-67
2022/12/08 05:18:35;;;;;;;;;;;;;;;25.39;48.62;96837.17;608016;233;66750;-66
2022/12/08 05:21:03;;;;;;;;;;;;;;;25.40;48.51;96851.41;608056;233;66600;-67
2022/12/08 05:23:31;;;;;;;;;;;;;;;25.39;50.10;96845.24;608034;233;63005;-68
2022/12/08 05:26:00;;;;;;;;;;;;;;;25.39;48.81;96831.80;608044;233;68945;-68
2022/12/08 05:28:27;;;;;;;;;;;;;;;25.38;49.18;96840.97;608043;233;66733;-68
2022/12/08 05:30:55;;;;;;;;;;;;;;;25.37;48.30;96850.16;608038;233;62935;-68
2022/12/08 05:33:22;;;;;;;;;;;;;;;25.38;48.45;96851.73;608014;233;68883;-68
2022/12/08 05:35:50;;;;;;;;;;;;;;;25.39;47.89;96847.14;608037;233;68697;-68
2022/12/08 05:38:18;;;;;;;;;;;;;;;25.38;46.91;96846.36;608036;233;63041;-68
2022/12/08 05:40:45;;;;;;;;;;;;;;;25.39;46.13;96845.24;608009;233;68484;-68
2022/12/08 05:43:13;;;;;;;;;;;;;;;25.39;46.95;96842.55;607954;233;68732;-68
2022/12/08 05:45:40;;;;;;;;;;;;;;;25.41;47.11;96850.33;608097;233;65297;-68
2022/12/08 05:48:08;;;;;;;;;;;;;;;25.41;45.18;96850.33;607981;233;68822;-68
2022/12/08 05:50:35;;;;;;;;;;;;;;;25.42;47.21;96851.91;608025;233;68434;-68
2022/12/08 05:53:04;;;;;;;;;;;;;;;25.42;45.85;96859.98;608048;233;62674;-68
2022/12/08 05:55:32;;;;;;;;;;;;;;;25.43;44.99;96864.28;608027;233;67488;-68
2022/12/08 05:57:59;;;;;;;;;;;;;;;25.44;45.83;96877.41;608060;233;68969;-68
2022/12/08 06:00:26;;;;;;;;;;;;;;;25.45;45.33;96865.58;608008;233;65105;-68
2022/12/08 06:02:54;;;;;;;;;;;;;;;25.45;44.73;96870.95;608025;233;69933;-68
2022/12/08 06:05:21;;;;;;;;;;;;;;;25.47;45.58;96884.88;608040;233;68534;-68
2022/12/08 06:07:49;;;;;;;;;;;;;;;25.50;48.34;96874.62;608012;233;63609;-68
2022/12/08 06:10:17;;;;;;;;;;;;;;;25.49;44.93;96876.52;608081;233;68829;-68
2022/12/08 06:12:44;;;;;;;;;;;;;;;25.50;45.62;96877.30;608014;233;68664;-68
2022/12/08 06:15:11;;;;;;;;;;;;;;;25.52;43.73;96877.80;607966;233;65081;-68
2022/12/08 06:17:39;;;;;;;;;;;;;;;25.53;42.73;96874.00;608004;233;69243;-68
2022/12/08 06:20:07;;;;;;;;;;;;;;;25.55;43.79;96879.89;608025;233;68782;-68
2022/12/08 06:22:35;;;;;;;;;;;;;;;25.55;43.84;96877.98;608047;233;65063;-68
2022/12/08 06:25:02;;;;;;;;;;;;;;;25.57;43.71;96881.17;607993;233;69020;-68
2022/12/08 06:27:30;;;;;;;;;;;;;;;25.58;44.65;96869.30;608003;233;68672;-68
2022/12/08 06:29:57;;;;;;;;;;;;;;;25.60;44.79;96871.70;607977;233;65153;-68
2022/12/08 06:32:25;;;;;;;;;;;;;;;25.61;42.76;96863.31;607743;233;68831;-68
2022/12/08 06:34:53;;;;;;;;;;;;;;;25.64;43.74;96864.59;608021;233;66406;-68
2022/12/08 06:37:21;;;;;;;;;;;;;;;25.65;42.26;96872.38;608064;233;62825;-67
2022/12/08 06:39:48;;;;;;;;;;;;;;;25.66;44.54;96873.17;608061;233;68801;-67
2022/12/08 06:45:01;;;;;;;;;;;;;;;25.69;44.57;96876.03;608038;233;65147;-66
2022/12/08 06:47:29;;;;;;;;;;;;;;;25.70;46.05;96868.78;608019;233;68831;-66
2022/12/08 06:49:58;;;;;;;;;;;;;;;25.71;46.32;96874.95;607956;233;68496;-66
2022/12/08 06:52:26;;;;;;;;;;;;;;;25.72;44.04;96865.77;608005;233;62973;-66
2022/12/08 06:54:55;;;;;;;;;;;;;;;25.73;44.72;96865.48;607966;233;66613;-66
2022/12/08 06:57:23;;;;;;;;;;;;;;;25.75;45.42;96863.25;608019;233;68785;-68
2022/12/08 06:59:50;;;;;;;;;;;;;;;25.75;45.13;96860.56;607259;233;65128;-68
2022/12/08 07:02:18;;;;;;;;;;;;;;;25.77;45.67;96857.58;608057;233;68759;-67
2022/12/08 07:04:45;;;;;;;;;;;;;;;25.79;44.33;96855.38;609693;231;68630;-67
2022/12/08 07:07:13;;;;;;;;;;;;;;;25.79;45.95;96858.86;611088;232;65049;-67
2022/12/08 07:09:40;;;;;;;;;;;;;;;25.80;44.72;96867.73;611221;232;68967;-68
2022/12/08 07:12:08;;;;;;;;;;;;;;;25.81;44.46;96862.05;603185;232;66948;-68
2022/12/08 07:14:37;;;;;;;;;;;;;;;25.84;44.26;96869.55;610675;231;63940;-67
2022/12/08 07:17:05;;;;;;;;;;;;;;;25.84;44.72;96861.47;607980;231;68793;-68
2022/12/08 07:19:32;;;;;;;;;;;;;;;25.86;44.61;96861.97;608007;233;68607;-67
2022/12/08 07:22:00;;;;;;;;;;;;;;;25.88;43.57;96869.72;607940;233;62680;-68
2022/12/08 07:24:27;;;;;;;;;;;;;;;25.91;44.48;96869.10;607963;233;66582;-68
2022/12/08 07:26:55;;;;;;;;;;;;;;;25.90;44.75;96857.55;607902;232;66577;-68
2022/12/08 07:29:22;;;;;;;;;;;;;;;25.91;43.87;96869.10;608062;233;62885;-68
2022/12/08 07:31:50;;;;;;;;;;;;;;;25.92;44.76;96870.71;607985;233;68489;-67
2022/12/08 07:34:17;;;;;;;;;;;;;;;25.93;44.19;96863.42;607937;233;66668;-67
2022/12/08 07:36:45;;;;;;;;;;;;;;;25.95;44.66;96869.30;607964;233;62950;-67
2022/12/08 07:39:12;;;;;;;;;;;;;;;25.96;44.95;96866.28;608081;233;66984;-68
2022/12/08 07:41:40;;;;;;;;;;;;;;;25.98;45.22;96865.99;608017;233;68640;-67
2022/12/08 07:44:08;;;;;;;;;;;;;;;25.98;45.35;96864.09;607988;233;65021;-68
2022/12/08 07:46:35;;;;;;;;;;;;;;;25.99;44.77;96860.28;608005;233;68775;-67
2022/12/08 07:49:03;;;;;;;;;;;;;;;26.01;44.53;96862.69;607926;233;68662;-68
2022/12/08 07:51:31;;;;;;;;;;;;;;;26.02;43.73;96858.88;607977;233;65146;-68
2022/12/08 07:53:58;;;;;;;;;;;;;;;26.04;44.16;96862.06;608041;233;68739;-68
2022/12/08 07:56:26;;;;;;;;;;;;;;;26.05;44.80;96860.95;607951;233;68537;-69
2022/12/08 07:58:53;;;;;;;;;;;;;;;26.06;44.32;96862.56;607928;233;64991;-68
2022/12/08 08:01:28;;;;;;;;;;;;;;;26.08;43.83;96863.02;607967;233;68624;-69
2022/12/08 08:03:56;;;;;;;;;;;;;;;26.07;45.02;96862.23;607954;233;66573;-68
2022/12/08 08:06:25;;;;;;;;;;;;;;;26.09;44.75;96864.63;607986;233;65169;-68
2022/12/08 08:08:53;;;;;;;;;;;;;;;26.09;44.72;96868.12;607984;233;68998;-69
2022/12/08 08:11:21;;;;;;;;;;;;;;;26.11;45.17;96870.52;607941;233;68683;-67
2022/12/08 08:13:49;;;;;;;;;;;;;;;26.11;43.29;96865.92;607935;233;65136;-69
2022/12/08 08:16:17;;;;;;;;;;;;;;;26.13;43.66;96862.91;608021;233;68811;-68
2022/12/08 08:18:47;;;;;;;;;;;;;;;26.13;45.44;96849.44;607941;233;68207;-69
2022/12/08 08:21:14;;;;;;;;;;;;;;;26.15;45.06;96862.61;608042;233;65254;-68
2022/12/08 08:23:42;;;;;;;;;;;;;;;26.16;43.36;96856.11;608001;233;68503;-67
2022/12/08 08:26:09;;;;;;;;;;;;;;;26.17;44.24;96861.20;607998;232;68498;-67
2022/12/08 08:28:37;;;;;;;;;;;;;;;26.18;44.45;96852.00;609956;232;65084;-67
2022/12/08 08:31:05;;;;;;;;;;;;;;;26.17;42.88;96853.12;609908;232;68704;-67
2022/12/08 08:33:32;;;;;;;;;;;;;;;26.20;45.09;96854.41;610021;232;68537;-67
2022/12/08 08:36:00;;;;;;;;;;;;;;;26.19;45.14;96845.53;609975;232;65077;-67
2022/12/08 08:38:28;;;;;;;;;;;;;;;26.21;45.32;96848.69;609970;232;68105;-67
2022/12/08 08:40:56;;;;;;;;;;;;;;;26.22;44.14;96844.09;609897;232;66499;-67
2022/12/08 08:43:28;;;;;;;;;;;;;;;26.23;43.91;96841.10;609995;232;63043;-67
2022/12/08 08:45:58;;;;;;;;;;;;;;;26.25;44.12;96838.90;609851;230;66348;-67
2022/12/08 08:48:26;;;;;;;;;;;;;;;26.26;44.99;96835.09;609999;232;68712;-66
2022/12/08 08:50:54;;;;;;;;;;;;;;;26.27;43.84;96833.19;609920;232;65084;-67
2022/12/08 08:53:21;;;;;;;;;;;;;;;26.29;44.84;96825.59;609902;232;69073;-65
2022/12/08 08:55:51;;;;;;;;;;;;;;;26.29;44.68;96823.69;609721;232;68746;-67
2022/12/08 08:58:18;;;;;;;;;;;;;;;26.31;39.11;96821.49;609804;232;65101;-65
2022/12/08 09:00:46;;;;;;;;;;;;;;;26.38;38.30;96821.03;609991;232;68685;-64
2022/12/08 09:03:13;;;;;;;;;;;;;;;26.44;39.29;96824.41;609923;232;66697;-65
2022/12/08 09:05:43;;;;;;;;;;;;;;;26.46;39.07;96822.17;610006;232;63026;-66
2022/12/08 09:08:10;;;;;;;;;;;;;;;26.50;40.20;96812.38;609855;232;66582;-66
2022/12/08 09:10:38;;;;;;;;;;;;;;;26.52;39.50;96811.00;609978;232;68788;-73
2022/12/08 09:13:05;;;;;;;;;;;;;;;26.54;39.99;96807.97;609962;232;64991;-67
2022/12/08 09:15:33;;;;;;;;;;;;;;;26.56;38.95;96794.98;609921;232;66704;-67
2022/12/08 09:18:00;;;;;;;;;;;;;;;26.56;46.37;96795.77;609962;232;68582;-67
2022/12/08 09:20:28;;;;;;;;;;;;;;;26.58;42.99;96797.38;609938;232;65046;-69
2022/12/08 09:22:55;;;;;;;;;;;;;;;26.56;43.84;96797.68;609762;232;68530;-67
2022/12/08 09:25:23;;;;;;;;;;;;;;;26.58;43.33;96782.00;609969;232;68821;-67
2022/12/08 09:27:50;;;;;;;;;;;;;;;26.62;44.67;96779.47;608302;232;62983;-66
2022/12/08 09:30:18;;;;;;;;;;;;;;;26.63;40.73;96776.47;607790;233;66596;-68
2022/12/08 09:32:45;;;;;;;;;;;;;;;26.77;41.74;96777.13;607958;233;66532;-67
2022/12/08 09:35:13;;;;;;;;;;;;;;;26.77;44.54;96779.03;607876;233;65023;-66
2022/12/08 09:37:40;;;;;;;;;;;;;;;26.74;44.05;96771.58;607931;233;68910;-68
2022/12/08 09:40:09;;;;;;;;;;;;;;;26.72;43.44;96768.40;607994;233;69048;-67
2022/12/08 09:42:42;;;;;;;;;;;;;;;26.70;42.92;96774.09;607891;233;62780;-66
2022/12/08 09:45:11;;;;;;;;;;;;;;;26.71;43.28;96774.88;607908;233;68946;-74
2022/12/08 09:47:42;;;;;;;;;;;;;;;26.75;43.26;96771.25;607916;233;68705;-70
2022/12/08 09:50:23;;;;;;;;;;;;;;;26.75;42.97;96767.77;607886;233;64857;-68
2022/12/08 09:53:04;;;;;;;;;;;;;;;26.79;42.30;96772.22;607805;233;68921;-69
2022/12/08 09:55:40;;;;;;;;;;;;;;;26.79;43.02;96779.49;607992;233;68666;-68
2022/12/08 09:58:08;;;;;;;;;;;;;;;26.81;43.05;96766.50;607834;233;62779;-68
2022/12/08 10:00:36;;;;;;;;;;;;;;;26.83;43.15;96766.98;607682;233;66242;-68
2022/12/08 10:03:03;;;;;;;;;;;;;;;26.86;43.19;96765.56;607920;233;66526;-68
2022/12/08 10:05:34;;;;;;;;;;;;;;;26.88;42.73;96763.36;607862;233;62814;-68
2022/12/08 10:08:03;;;;;;;;;;;;;;;26.89;42.38;96762.23;607901;233;68921;-66
2022/12/08 10:10:32;;;;;;;;;;;;;;;26.88;42.89;96761.45;607529;233;68582;-69
2022/12/08 10:13:17;;;;;;;;;;;;;;;26.88;42.81;96749.88;607873;233;63126;-69
2022/12/08 10:15:52;;;;;;;;;;;;;;;26.91;43.70;96754.63;607922;233;68646;-69
2022/12/08 10:18:21;;;;;;;;;;;;;;;26.94;43.13;96753.99;607686;233;66415;-68
2022/12/08 10:20:49;;;;;;;;;;;;;;;26.96;44.00;96759.88;611352;231;62984;-68
2022/12/08 10:23:36;;;;;;;;;;;;;;;26.96;43.37;96754.48;613609;231;66535;-69
2022/12/08 10:26:05;;;;;;;;;;;;;;;26.96;43.31;96747.18;613697;228;66530;-68
2022/12/08 10:28:33;;;;;;;;;;;;;;;26.98;42.61;96749.55;620428;228;62852;-70
2022/12/08 10:31:01;;;;;;;;;;;;;;;27.00;42.98;96740.03;620320;228;68890;-69
2022/12/08 10:33:30;;;;;;;;;;;;;;;27.01;43.33;96738.94;620317;228;68460;-69
2022/12/08 10:35:59;;;;;;;;;;;;;;;27.01;43.54;96735.45;620367;228;62809;-68
2022/12/08 10:38:28;;;;;;;;;;;;;;;27.01;43.19;96743.55;620462;228;68813;-68
2022/12/08 10:41:13;;;;;;;;;;;;;;;26.98;43.47;96739.57;620142;228;66533;-69
2022/12/08 10:43:48;;;;;;;;;;;;;;;26.97;43.53;96737.97;620384;228;64928;-70
2022/12/08 10:46:20;;;;;;;;;;;;;;;26.98;43.80;96731.48;620375;228;66355;-67
2022/12/08 10:48:49;;;;;;;;;;;;;;;26.96;42.15;96738.30;620049;228;68384;-68
2022/12/08 10:51:30;;;;;;;;;;;;;;;26.95;42.25;96732.09;620386;228;63678;-68
2022/12/08 10:53:58;;;;;;;;;;;;;;;26.96;44.43;96730.21;620186;228;68707;-68
2022/12/08 10:56:27;;;;;;;;;;;;;;;26.96;42.60;96735.61;620349;228;66924;-69
2022/12/08 10:59:14;;;;;;;;;;;;;;;26.96;44.08;96725.61;620324;228;65068;-67
2022/12/08 11:01:43;;;;;;;;;;;;;;;26.98;44.06;96733.36;620350;228;68630;-68
2022/12/08 11:04:18;;;;;;;;;;;;;;;26.97;43.51;96721.79;620412;228;68640;-69
2022/12/08 11:06:47;;;;;;;;;;;;;;;26.98;42.90;96717.18;620003;228;62544;-67
2022/12/08 11:09:19;;;;;;;;;;;;;;;26.98;44.35;96711.78;620334;228;68811;-67
2022/12/08 11:11:51;;;;;;;;;;;;;;;26.98;43.90;96706.39;620364;228;68533;-68
2022/12/08 11:14:20;;;;;;;;;;;;;;;26.98;43.38;96706.39;620389;228;63667;-69
2022/12/08 11:16:49;;;;;;;;;;;;;;;26.96;44.07;96704.03;620130;228;68311;-68
2022/12/08 11:19:18;;;;;;;;;;;;;;;26.93;44.29;96701.19;620347;228;66495;-68
2022/12/08 11:21:46;;;;;;;;;;;;;;;26.96;44.51;96697.85;620341;228;66065;-70
2022/12/08 11:24:24;;;;;;;;;;;;;;;26.99;44.53;96691.82;620350;228;69135;-69
2022/12/08 11:26:53;;;;;;;;;;;;;;;26.94;43.98;96690.06;620404;228;68769;-67
2022/12/08 11:29:21;;;;;;;;;;;;;;;26.94;44.57;96694.67;620032;228;65033;-67
2022/12/08 11:31:50;;;;;;;;;;;;;;;26.95;43.81;96698.94;620378;228;68727;-67
2022/12/08 11:34:20;;;;;;;;;;;;;;;26.99;44.02;96697.21;618416;228;66639;-68
2022/12/08 11:36:48;;;;;;;;;;;;;;;27.00;43.95;96698.79;619344;228;64886;-68
2022/12/08 11:39:16;;;;;;;;;;;;;;;26.99;45.07;96689.91;620433;228;66756;-68
2022/12/08 11:41:44;;;;;;;;;;;;;;;26.97;45.25;96689.42;620414;228;66405;-68
2022/12/08 11:44:29;;;;;;;;;;;;;;;27.00;44.39;96688.00;620289;228;63072;-69
2022/12/08 11:47:01;;;;;;;;;;;;;;;27.00;44.13;96688.00;620101;228;66487;-69
2022/12/08 11:49:36;;;;;;;;;;;;;;;27.03;44.79;96687.36;620204;228;68866;-64
2022/12/08 11:52:14;;;;;;;;;;;;;;;27.04;44.13;96686.27;620366;228;62713;-69
2022/12/08 11:54:46;;;;;;;;;;;;;;;27.05;44.54;96685.14;620169;228;68917;-69
2022/12/08 11:57:19;;;;;;;;;;;;;;;27.04;43.79;96688.97;620062;228;68762;-67
2022/12/08 11:59:48;;;;;;;;;;;;;;;27.04;44.66;96678.17;620338;228;45830;-66
2022/12/08 12:02:17;;;;;;;;;;;;;;;27.03;45.28;96681.18;620451;228;68891;-67
2022/12/08 12:04:46;;;;;;;;;;;;;;;27.01;44.82;96676.91;620339;228;68554;-67
2022/12/08 12:07:22;;;;;;;;;;;;;;;27.03;45.70;96673.88;620439;228;62842;-66
2022/12/08 12:09:52;;;;;;;;;;;;;;;27.05;44.89;96674.36;620229;228;68847;-67
2022/12/08 12:12:27;;;;;;;;;;;;;;;27.06;44.71;96670.54;620381;228;69015;-67
2022/12/08 12:15:08;;;;;;;;;;;;;;;27.09;44.92;96675.32;620407;228;63969;-66
2022/12/08 12:17:37;;;;;;;;;;;;;;;27.07;44.08;96674.84;620393;228;68820;-68
2022/12/08 12:20:06;;;;;;;;;;;;;;;27.09;44.28;96669.92;620380;228;69304;-68
2022/12/08 12:22:35;;;;;;;;;;;;;;;27.09;43.84;96672.63;620159;228;63086;-67
2022/12/08 12:25:03;;;;;;;;;;;;;;;27.12;45.11;96674.68;620472;228;68784;-68
2022/12/08 12:27:34;;;;;;;;;;;;;;;27.16;44.97;96677.52;616179;228;68519;-67
2022/12/08 12:30:05;;;;;;;;;;;;;;;27.16;44.57;96670.25;613502;231;65047;-67
2022/12/08 12:32:49;;;;;;;;;;;;;;;27.18;45.02;96669.94;613683;231;66334;-67
2022/12/08 12:35:21;;;;;;;;;;;;;;;27.18;44.18;96662.64;613556;231;68505;-67
2022/12/08 12:37:49;;;;;;;;;;;;;;;27.21;44.64;96661.20;613551;231;64969;-68
2022/12/08 12:40:21;;;;;;;;;;;;;;;27.25;45.05;96672.14;613710;231;66634;-70
2022/12/08 12:42:56;;;;;;;;;;;;;;;27.24;43.08;96671.35;613421;231;68442;-68
2022/12/08 12:45:33;;;;;;;;;;;;;;;27.27;39.44;96669.92;613550;230;63163;-68
2022/12/08 12:48:02;;;;;;;;;;;;;;;27.31;44.14;96670.85;613621;231;68464;-68
2022/12/08 12:50:35;;;;;;;;;;;;;;;27.35;43.46;96678.00;613642;231;68583;-68
2022/12/08 12:53:07;;;;;;;;;;;;;;;27.39;44.50;96670.05;613519;231;62858;-69
2022/12/08 12:55:53;;;;;;;;;;;;;;;27.41;43.74;96660.52;612956;231;66440;-68
2022/12/08 12:58:22;;;;;;;;;;;;;;;27.44;43.84;96656.38;613598;231;68667;-67
2022/12/08 13:00:51;;;;;;;;;;;;;;;27.44;41.29;96667.17;613642;231;62752;-68
2022/12/08 13:03:19;;;;;;;;;;;;;;;27.47;39.30;96663.83;612825;231;66521;-69
2022/12/08 13:05:51;;;;;;;;;;;;;;;27.49;42.66;96658.91;613621;231;66717;-69
2022/12/08 13:08:23;;;;;;;;;;;;;;;27.45;42.41;96660.69;613651;231;65109;-69